Juneau, AK

4:30 PM AKDT on August 21, 2014 (GMT -0800)
Juneau International | Change Station
CLOSE
Current Station
Airport
Location: Juneau,
Elevation: 23 ft
Nearby Weather Stations

Elev 23 ft 58.35 °N, 134.58 °W | Updated 37 minutes ago

Partly Cloudy
Partly Cloudy
71 °F
Feels Like 71 °F
N
8
Wind Variable Wind from WSW

Today
High -- | Low -- °F
--% Chance of Precip.
Yesterday
High -- | Low -- °F
Precip. -- in
5:33 AM 8:27 PM
Waning Crescent, 11% visible
Pressure 30.12 in
Visibility 10.0 miles
Clouds Few 5000 ft
Dew Point 51 °F
Humidity 49%
Rainfall 0.00 in
Snow Depth Not available.
UV 3 out of 12
Pollen Not available.
Air Quality Not available.
Flu Activity Not available.
METAR PAJN 212353Z 25007KT 10SM FEW050 22/11 A3012 RMK AO2 SLP199 T02170106 10217 20150 58004

More Conditions Fewer Conditions

Pressure 30.12 in
Visibility 10.0 miles
Clouds Few 5000 ft
Dew Point 51 °F
Humidity 49%
Rainfall 0.00 in
Snow Depth Not available.
UV 3 out of 12
Pollen Not available.
Air Quality Not available.
Flu Activity Not available.
METAR PAJN 212353Z 25007KT 10SM FEW050 22/11 A3012 RMK AO2 SLP199 T02170106 10217 20150 58004

More Conditions Fewer Conditions

10-Day Weather Forecast

Almanac

Astronomy

Aug. 21, 2014 Rise Set
Actual Time 5:33 AM AKDT 8:27 PM AKDT
Civil Twilight 4:48 AM AKDT 9:12 PM AKDT
Nautical Twilight 3:46 AM AKDT 10:13 PM AKDT
Astronomical Twilight 2:14 AM AKDT 11:41 PM AKDT
Moon 1:47 AM AKDT (8/21) 6:20 PM AKDT (8/21)
Length of Visible Light 16h 24m
Length of Day
14h 53m
Tomorrow will be 4m 56s shorter.
Waning Crescent, 11% of the Moon is Illuminated
Today
Waning Crescent
Aug 25
New
Sep 2
First Quarter
Sep 8
Full
Sep 15
Last Quarter

Today's Extremes

State Highs State Lows

Community

WunderPhotos

Upload Photos

1,746,073 photos uploaded!

Nearby

Snow Depth

Station Depth Elevation
Upper Tsaina River 0 in 1750 ft
Granite Creek 0 in 1240 ft
Grandview 0 in 1100 ft
Grouse Creek Divide 0 in 700 ft
Turnagain Pass 1 in 1880 ft

Earthquake Activity

City Distance Mag. Time & Date
No recent earthquake activity has been reported nearby.
Minimum magnitude displayed is 2.5.

Coastal Water Temperatures

Place Temperature
No Stations Reporting

Nearby Weather Stations